Woodstock, Maryland
Current Conditions -  °F | °C
As of 8:54 AM on Friday 19 Dec 2014 (Local Time) from KBWI Reporting Station
Overcast Overcast  
Wind Chill: 27°   Ceiling: 3100
Heat Index: 35°   Visibility: 10mi
Dew Point: 23°   Wind: 10mph
Humidity: 61%   Direction: 290°WNW
Pressure: 30.14"   Gusts: NA
Location:  39.33°N, 76.87°W
Report Text: KBWI 191354Z 29009KT 10SM OVC031 02/M05 A3014 RMK AO2 SLP209 T00171050
Loading
Personal Weather Stations






























Interactive Weather Map New forecast layout! Learn more

10-Day Weather Forecast

Advertisements
Track Severe Weather on mobile